Time;durP1;ratioP1;P1;durP2;ratioP2;P2;SDS_P1;SDS_P2;PMS_P1;PMS_P2;Temp;Humidity;BMP_temperature;BMP_pressure;BME280_temperature;BME280_humidity;BME280_pressure;Samples;Min_cycle;Max_cycle;Signal;HPM_P1;HPM_P2
2023/06/10 00:00:48;;;;;;;;;27.00;26.00;;;;;24.81;59.95;100764.75;5060500;28;45596;-77
2023/06/10 00:03:14;;;;;;;;;27.00;27.00;;;;;24.69;59.28;100752.53;5070294;28;46354;-77
2023/06/10 00:05:39;;;;;;;;;30.33;26.00;;;;;24.78;59.11;100762.38;5047353;28;45431;-77
2023/06/10 00:08:10;;;;;;;;;24.25;24.00;;;;;24.77;60.49;100766.09;5061853;28;47903;-77
2023/06/10 00:10:38;;;;;;;;;26.33;22.33;;;;;24.82;60.53;100764.63;5064208;28;45446;-77
2023/06/10 00:13:05;;;;;;;;;29.33;27.33;;;;;24.73;59.78;100745.78;5051484;28;47190;-77
2023/06/10 00:15:31;;;;;;;;;27.33;25.33;;;;;24.85;59.82;100769.69;5042144;28;45394;-77
2023/06/10 00:17:56;;;;;;;;;31.33;28.33;;;;;24.88;59.14;100768.50;5059887;28;45368;-77
2023/06/10 00:20:23;;;;;;;;;32.00;28.67;;;;;24.76;59.63;100756.28;5077121;28;45307;-76
2023/06/10 00:22:49;;;;;;;;;34.33;32.00;;;;;24.88;59.05;100776.63;5069858;28;45435;-77
2023/06/10 00:25:15;;;;;;;;;28.00;26.00;;;;;24.85;59.68;100776.97;5029330;28;45254;-77
2023/06/10 00:27:40;;;;;;;;;26.67;26.00;;;;;24.82;59.61;100764.63;5065142;28;45419;-77
2023/06/10 00:30:06;;;;;;;;;30.50;28.25;;;;;24.90;59.61;100781.91;5069341;28;45285;-77
2023/06/10 00:32:36;;;;;;;;;29.67;25.67;;;;;24.91;59.14;100776.31;5064324;28;47910;-77
2023/06/10 00:35:03;;;;;;;;;28.33;24.67;;;;;24.88;59.75;100772.06;5069080;28;45405;-77
2023/06/10 00:37:29;;;;;;;;;30.50;29.50;;;;;24.93;58.97;100781.56;5052608;28;45296;-77
2023/06/10 00:39:54;;;;;;;;;28.00;23.67;;;;;24.93;60.00;100777.00;5061944;28;45486;-77
2023/06/10 00:42:19;;;;;;;;;27.33;25.33;;;;;24.82;60.13;100767.31;5067534;28;45284;-77
2023/06/10 00:44:45;;;;;;;;;28.67;27.33;;;;;24.88;60.21;100782.91;5067116;28;45301;-77
2023/06/10 00:47:10;;;;;;;;;26.00;23.00;;;;;24.77;61.10;100766.91;5061941;28;45232;-77
2023/06/10 00:49:36;;;;;;;;;28.00;26.00;;;;;24.87;60.66;100783.03;5059990;28;45286;-77
2023/06/10 00:52:04;;;;;;;;;29.00;24.33;;;;;24.80;61.34;100782.81;5073635;28;45336;-77
2023/06/10 00:54:30;;;;;;;;;27.33;24.00;;;;;24.69;61.08;100774.19;5073021;28;45386;-77
2023/06/10 00:56:56;;;;;;;;;26.33;23.67;;;;;24.80;62.25;100784.72;5074620;28;45353;-77
2023/06/10 00:59:22;;;;;;;;;25.00;25.00;;;;;24.79;61.24;100789.28;5063106;28;45305;-77
2023/06/10 01:01:47;;;;;;;;;25.00;24.33;;;;;24.78;60.62;100784.00;5067795;28;45431;-77
2023/06/10 01:04:13;;;;;;;;;26.33;23.33;;;;;24.75;59.93;100782.47;5041919;28;45441;-77
2023/06/10 01:07:04;;;;;;;;;22.33;21.33;;;;;24.70;58.59;100786.69;5043011;28;45417;-77
2023/06/10 01:09:48;;;;;;;;;17.00;15.00;;;;;24.71;58.12;100789.22;5046976;28;45412;-77
2023/06/10 01:12:20;;;;;;;;;11.33;9.67;;;;;24.70;57.59;100801.06;5043584;28;46206;-77
2023/06/10 01:14:48;;;;;;;;;5.67;5.67;;;;;24.61;57.71;100780.41;5057307;28;45307;-77
2023/06/10 01:17:16;;;;;;;;;8.33;8.33;;;;;24.58;57.85;100780.72;5038055;28;45474;-78
2023/06/10 01:19:43;;;;;;;;;10.33;9.33;;;;;24.66;57.67;100790.72;5057981;28;45391;-77
2023/06/10 01:22:10;;;;;;;;;10.67;10.67;;;;;24.54;58.72;100786.63;5056071;28;45448;-77
2023/06/10 01:24:36;;;;;;;;;10.33;8.33;;;;;24.61;60.68;100784.94;5059672;28;45322;-77
2023/06/10 01:27:10;;;;;;;;;10.00;10.00;;;;;24.52;58.44;100775.97;5053485;28;45474;-78
2023/06/10 01:29:52;;;;;;;;;8.33;8.33;;;;;24.50;58.64;100783.41;5049258;28;45377;-77
2023/06/10 01:32:28;;;;;;;;;11.67;8.00;;;;;24.45;58.91;100774.06;5024906;28;46009;-77
2023/06/10 01:34:56;;;;;;;;;9.00;9.00;;;;;24.49;58.94;100792.53;5039971;28;45390;-77
2023/06/10 01:37:26;;;;;;;;;9.33;7.67;;;;;24.41;59.90;100781.66;5058633;28;45371;-77
2023/06/10 01:39:54;;;;;;;;;8.33;8.00;;;;;24.46;59.81;100800.09;5044058;28;45382;-77
2023/06/10 01:42:21;;;;;;;;;10.00;9.33;;;;;24.36;60.13;100787.56;5045608;28;45478;-77
2023/06/10 01:44:46;;;;;;;;;9.33;9.33;;;;;24.38;60.91;100799.06;5041935;28;45303;-77
2023/06/10 01:47:12;;;;;;;;;8.33;8.33;;;;;24.30;60.11;100788.22;5038141;28;46313;-78
2023/06/10 01:49:37;;;;;;;;;9.33;8.67;;;;;24.35;60.24;100801.22;5037413;28;45713;-77
2023/06/10 01:52:02;;;;;;;;;12.67;11.00;;;;;24.25;61.07;100789.69;5037192;28;45438;-77
2023/06/10 01:54:28;;;;;;;;;10.67;9.00;;;;;24.32;60.73;100801.56;5046505;28;45297;-78
2023/06/10 01:56:54;;;;;;;;;14.33;10.33;;;;;24.24;61.71;100807.78;5042947;28;45510;-77
2023/06/10 01:59:19;;;;;;;;;9.33;9.33;;;;;24.11;61.10;100777.59;5048591;28;45816;-78
2023/06/10 02:01:44;;;;;;;;;7.00;7.00;;;;;24.29;61.98;100823.50;5033148;28;46060;-77
2023/06/10 02:04:10;;;;;;;;;8.33;8.33;;;;;24.24;61.01;100813.19;5042097;28;45540;-77
2023/06/10 02:06:35;;;;;;;;;6.33;6.00;;;;;24.17;62.02;100798.59;5043938;28;45403;-77
2023/06/10 02:09:01;;;;;;;;;9.33;8.67;;;;;24.23;61.22;100814.19;5058079;28;45742;-78
2023/06/10 02:11:26;;;;;;;;;8.00;7.33;;;;;24.20;62.79;100816.34;5072357;28;45392;-78
2023/06/10 02:13:52;;;;;;;;;13.67;10.67;;;;;24.18;62.68;100804.88;5060469;28;45364;-78
2023/06/10 02:16:18;;;;;;;;;10.33;7.00;;;;;24.17;62.26;100814.81;5060071;28;45305;-77
2023/06/10 02:18:44;;;;;;;;;8.67;8.67;;;;;24.11;62.96;100806.47;5028724;28;45479;-78
2023/06/10 02:21:10;;;;;;;;;10.33;10.33;;;;;24.04;63.60;100802.72;5058293;28;45345;-77
2023/06/10 02:23:35;;;;;;;;;9.00;9.00;;;;;23.98;63.95;100797.94;5057779;28;45329;-78
2023/06/10 02:26:02;;;;;;;;;9.67;9.67;;;;;23.92;64.62;100794.00;5070971;28;45321;-78
2023/06/10 02:28:27;;;;;;;;;8.33;7.33;;;;;23.99;63.28;100810.41;5071736;28;45616;-78
2023/06/10 02:30:53;;;;;;;;;6.33;6.33;;;;;23.88;64.09;100806.16;5040211;28;47407;-78
2023/06/10 02:33:18;;;;;;;;;10.00;4.00;;;;;23.93;64.25;100814.63;5050261;28;45407;-78
2023/06/10 02:35:43;;;;;;;;;5.33;5.33;;;;;23.88;63.72;100808.00;5058162;28;45407;-77
2023/06/10 02:38:09;;;;;;;;;8.00;8.00;;;;;23.80;64.98;100804.22;5071342;28;45585;-77
2023/06/10 02:40:34;;;;;;;;;8.33;8.33;;;;;23.77;64.11;100806.38;5040085;28;47643;-77
2023/06/10 02:42:59;;;;;;;;;8.67;7.67;;;;;23.78;64.76;100808.94;5045842;28;45558;-78
2023/06/10 02:45:25;;;;;;;;;8.67;7.00;;;;;23.79;65.69;100816.03;5048892;28;45515;-77
2023/06/10 02:47:50;;;;;;;;;11.33;9.33;;;;;23.75;65.14;100813.81;5051713;28;45367;-77
2023/06/10 02:50:15;;;;;;;;;8.00;8.00;;;;;23.72;64.50;100816.81;5066270;28;46361;-77
2023/06/10 02:52:41;;;;;;;;;8.00;8.00;;;;;23.63;65.45;100812.34;5059647;28;45360;-77
2023/06/10 02:55:07;;;;;;;;;8.00;6.67;;;;;23.59;66.35;100813.69;5082006;28;45493;-77
2023/06/10 02:57:32;;;;;;;;;8.67;7.00;;;;;23.61;66.49;100830.56;5063281;28;45391;-77
2023/06/10 02:59:58;;;;;;;;;8.00;6.00;;;;;23.57;66.14;100827.31;5051044;28;46746;-77
2023/06/10 03:02:28;;;;;;;;;8.00;7.67;;;;;23.51;67.48;100816.28;5079984;28;45276;-76
2023/06/10 03:04:56;;;;;;;;;9.67;6.67;;;;;23.48;66.92;100817.47;5060723;28;45341;-77
2023/06/10 03:07:21;;;;;;;;;9.33;8.67;;;;;23.44;68.30;100826.88;5075237;28;45840;-77
2023/06/10 03:09:47;;;;;;;;;8.00;8.00;;;;;23.40;67.77;100827.28;5081446;28;45398;-77
2023/06/10 03:12:12;;;;;;;;;9.33;8.00;;;;;23.35;69.03;100833.16;5061319;28;45426;-77
2023/06/10 03:14:38;;;;;;;;;8.33;8.33;;;;;23.27;69.70;100831.22;5061178;28;45463;-77
2023/06/10 03:17:06;;;;;;;;;9.00;9.00;;;;;23.18;68.70;100815.94;5059764;28;45559;-77
2023/06/10 03:19:33;;;;;;;;;7.00;7.00;;;;;23.18;68.82;100828.59;5078748;28;46042;-77
2023/06/10 03:22:08;;;;;;;;;9.00;9.00;;;;;23.11;68.94;100822.94;5044664;28;45456;-77
2023/06/10 03:24:33;;;;;;;;;8.00;7.00;;;;;23.00;70.51;100815.09;5061014;28;45484;-77
2023/06/10 03:27:00;;;;;;;;;10.00;9.33;;;;;22.97;70.26;100817.25;5073463;28;47183;-76
2023/06/10 03:29:25;;;;;;;;;9.00;9.00;;;;;22.97;71.43;100831.56;5063661;28;45509;-76
2023/06/10 03:31:50;;;;;;;;;9.00;7.67;;;;;22.92;70.21;100831.16;5072969;28;52580;-76
2023/06/10 03:34:16;;;;;;;;;13.00;10.00;;;;;22.89;72.07;100831.47;5066492;28;55168;-76
2023/06/10 03:36:42;;;;;;;;;8.67;8.33;;;;;22.81;72.40;100825.97;5069076;28;48724;-76
2023/06/10 03:39:08;;;;;;;;;8.67;8.33;;;;;22.74;72.45;100825.72;5041805;28;46952;-77
2023/06/10 03:41:33;;;;;;;;;10.33;8.00;;;;;22.70;72.15;100826.19;5059933;28;45330;-76
2023/06/10 03:44:00;;;;;;;;;12.67;10.67;;;;;22.66;72.37;100819.38;5060938;28;45353;-76
2023/06/10 03:46:25;;;;;;;;;11.00;11.00;;;;;22.55;72.98;100812.31;5043514;28;45335;-77
2023/06/10 03:48:51;;;;;;;;;8.67;8.33;;;;;22.60;73.73;100830.75;5061790;28;45305;-76
2023/06/10 03:51:16;;;;;;;;;9.67;9.67;;;;;22.54;73.97;100829.50;5067373;28;45375;-76
2023/06/10 03:53:41;;;;;;;;;9.67;8.33;;;;;22.44;74.35;100820.59;5081138;28;46068;-76
2023/06/10 03:56:07;;;;;;;;;10.67;10.33;;;;;22.53;73.77;100835.88;5058330;28;45343;-77
2023/06/10 03:58:32;;;;;;;;;10.33;9.00;;;;;22.50;73.62;100832.63;5053210;28;45952;-77
2023/06/10 04:00:57;;;;;;;;;10.67;8.67;;;;;22.30;73.11;100813.84;5081447;28;45559;-76
2023/06/10 04:03:23;;;;;;;;;17.33;17.33;;;;;22.46;74.24;100842.84;5080885;28;45319;-76
2023/06/10 04:05:50;;;;;;;;;18.33;16.33;;;;;22.43;75.08;100844.97;5060839;28;45468;-76
2023/06/10 04:08:15;;;;;;;;;22.00;16.00;;;;;22.43;74.69;100844.97;5073428;28;45565;-76
2023/06/10 04:10:40;;;;;;;;;18.67;18.33;;;;;22.29;74.30;100827.44;5054317;28;45453;-76
2023/06/10 04:13:06;;;;;;;;;15.33;15.33;;;;;22.29;74.90;100825.59;5073641;28;45387;-76
2023/06/10 04:15:34;;;;;;;;;21.33;19.33;;;;;22.38;74.03;100847.28;5060472;28;45377;-76
2023/06/10 04:18:00;;;;;;;;;19.00;18.33;;;;;22.27;74.21;100840.22;5068807;28;45283;-76
2023/06/10 04:20:26;;;;;;;;;16.33;16.33;;;;;22.35;74.93;100850.28;5058436;28;45257;-75
2023/06/10 04:22:51;;;;;;;;;17.33;15.33;;;;;22.20;75.28;100829.19;5071436;28;45295;-75
2023/06/10 04:25:17;;;;;;;;;17.67;15.67;;;;;22.30;74.78;100861.47;5072938;28;45468;-76
2023/06/10 04:27:43;;;;;;;;;14.33;13.67;;;;;22.24;76.30;100844.06;5068191;28;46049;-76
2023/06/10 04:30:09;;;;;;;;;14.33;12.67;;;;;22.24;75.91;100857.53;5075276;28;45527;-75
2023/06/10 04:32:34;;;;;;;;;16.00;13.00;;;;;22.16;76.43;100849.31;5059679;28;45399;-75
2023/06/10 04:35:00;;;;;;;;;9.33;9.33;;;;;22.23;75.72;100849.59;5059990;28;45434;-77
2023/06/10 04:37:25;;;;;;;;;11.00;11.00;;;;;22.23;77.18;100861.22;5068597;28;45479;-77
2023/06/10 04:39:51;;;;;;;;;9.33;9.33;;;;;22.17;75.36;100863.66;5066770;28;45456;-77
2023/06/10 04:42:16;;;;;;;;;9.67;9.67;;;;;22.20;74.92;100874.97;5042159;28;45356;-77
2023/06/10 04:44:41;;;;;;;;;9.00;7.33;;;;;22.23;74.66;100879.22;5030704;28;57279;-77
2023/06/10 04:47:07;;;;;;;;;6.33;6.33;;;;;22.27;74.38;100877.94;5063999;28;45907;-77
2023/06/10 04:49:33;;;;;;;;;8.00;7.33;;;;;22.31;74.35;100888.31;5041763;28;45552;-77
2023/06/10 04:51:59;;;;;;;;;9.33;9.33;;;;;22.28;73.10;100876.97;5044199;28;45750;-77
2023/06/10 04:54:25;;;;;;;;;8.33;7.33;;;;;22.35;73.23;100871.84;5080400;28;45299;-77
2023/06/10 04:56:50;;;;;;;;;9.00;7.33;;;;;22.41;73.01;100873.94;5059252;28;46740;-77
2023/06/10 04:59:15;;;;;;;;;7.33;7.00;;;;;22.47;74.08;100879.59;5063999;28;48640;-77
2023/06/10 05:01:41;;;;;;;;;9.00;6.00;;;;;22.52;74.43;100889.91;5040182;28;48357;-77
2023/06/10 05:04:06;;;;;;;;;12.33;8.67;;;;;22.59;74.09;100891.03;5059604;28;45409;-77
2023/06/10 05:06:31;;;;;;;;;8.00;8.00;;;;;22.54;73.49;100879.88;5076004;28;54611;-77
2023/06/10 05:08:57;;;;;;;;;6.67;6.67;;;;;22.60;71.68;100879.25;5060855;28;45388;-77
2023/06/10 05:11:22;;;;;;;;;10.00;7.00;;;;;22.71;71.89;100889.88;5077629;28;45255;-77
2023/06/10 05:13:48;;;;;;;;;7.33;7.33;;;;;22.72;72.26;100889.75;5064485;28;45493;-77
2023/06/10 05:16:14;;;;;;;;;12.00;9.00;;;;;22.66;72.89;100870.63;5057409;28;45360;-77
2023/06/10 05:18:40;;;;;;;;;9.00;8.00;;;;;22.87;71.99;100897.38;5058311;28;45403;-77
2023/06/10 05:21:06;;;;;;;;;6.33;5.00;;;;;22.85;73.12;100875.91;5049966;28;45362;-77
2023/06/10 05:23:31;;;;;;;;;9.33;9.00;;;;;22.92;71.41;100885.13;5057874;28;45461;-77
2023/06/10 05:25:56;;;;;;;;;11.33;6.33;;;;;;;;5079773;28;45369;-76
2023/06/10 05:28:22;;;;;;;;;5.00;5.00;;;;;23.02;70.66;100875.13;5067944;28;46716;-76
2023/06/10 05:30:47;;;;;;;;;7.00;7.00;;;;;23.16;70.56;100895.38;5079571;28;45297;-76
2023/06/10 05:33:12;;;;;;;;;12.67;10.00;;;;;23.23;70.93;100894.59;5035884;28;45529;-77
2023/06/10 05:35:38;;;;;;;;;9.00;9.00;;;;;23.24;69.33;100874.72;5068243;28;45552;-77
2023/06/10 05:38:03;;;;;;;;;10.67;7.33;;;;;23.32;69.67;100888.31;5076432;28;47857;-77
2023/06/10 05:40:28;;;;;;;;;9.67;9.67;;;;;23.39;69.39;100896.66;5060418;28;45446;-77
2023/06/10 05:42:53;;;;;;;;;7.33;7.00;;;;;23.52;69.13;100907.09;5053862;28;46633;-76
2023/06/10 05:45:19;;;;;;;;;8.00;6.00;;;;;23.45;68.32;100879.88;5058519;28;51167;-77
2023/06/10 05:47:44;;;;;;;;;7.33;7.33;;;;;23.57;68.18;100888.56;5058529;28;45415;-77
2023/06/10 05:50:10;;;;;;;;;8.67;7.67;;;;;23.55;68.51;100896.00;5030196;28;45311;-77
2023/06/10 05:52:35;;;;;;;;;10.00;6.50;;;;;23.72;67.10;100912.19;5058442;28;45226;-77
2023/06/10 05:55:02;;;;;;;;;7.33;6.00;;;;;23.76;68.73;100907.31;5058573;28;46256;-77
2023/06/10 05:57:28;;;;;;;;;9.33;8.00;;;;;23.80;66.50;100900.63;5071593;28;45395;-77
2023/06/10 05:59:53;;;;;;;;;10.33;7.67;;;;;23.96;67.30;100913.41;5054504;28;45390;-76
2023/06/10 06:02:18;;;;;;;;;7.00;6.67;;;;;24.04;67.00;100913.50;5039784;28;58361;-77
2023/06/10 06:04:43;;;;;;;;;6.00;6.00;;;;;24.02;66.56;100900.13;5054774;28;45445;-76
2023/06/10 06:07:09;;;;;;;;;8.67;6.67;;;;;24.11;66.48;100904.63;5070918;28;45469;-77
2023/06/10 06:09:34;;;;;;;;;9.33;9.33;;;;;24.17;67.90;100905.88;5081491;28;45359;-78
2023/06/10 06:12:00;;;;;;;;;9.33;8.00;;;;;24.32;69.46;100923.22;5075938;28;45657;-79
2023/06/10 06:14:25;;;;;;;;;12.00;8.67;;;;;24.26;66.21;100900.38;5066323;28;46280;-78
2023/06/10 06:16:50;;;;;;;;;7.67;7.00;;;;;24.32;66.18;100907.84;5081135;28;54543;-77
2023/06/10 06:19:15;;;;;;;;;8.00;8.00;;;;;24.40;66.03;100914.31;5081878;28;45472;-78
2023/06/10 06:21:41;;;;;;;;;7.00;6.67;;;;;24.25;64.84;100890.56;5061280;28;45562;-78
2023/06/10 06:24:06;;;;;;;;;8.00;6.67;;;;;24.43;65.12;100911.28;5046924;28;47078;-77
2023/06/10 06:26:32;;;;;;;;;9.00;9.00;;;;;24.52;67.13;100921.16;5080847;28;45446;-78
2023/06/10 06:28:57;;;;;;;;;9.00;7.33;;;;;24.59;66.17;100912.25;5057058;28;45383;-78
2023/06/10 06:31:22;;;;;;;;;9.00;9.00;;;;;24.53;64.51;100907.47;5069541;28;53168;-79
2023/06/10 06:33:48;;;;;;;;;10.00;8.00;;;;;24.61;65.15;100912.06;5064181;28;45337;-81
2023/06/10 06:36:13;;;;;;;;;5.67;5.67;;;;;24.72;65.18;100918.06;5038370;28;52898;-78
2023/06/10 06:38:38;;;;;;;;;10.67;8.33;;;;;24.61;65.12;100898.53;5045923;28;45280;-81
2023/06/10 06:41:06;;;;;;;;;10.67;8.33;;;;;24.82;64.38;100920.69;5075286;28;45297;-83
2023/06/10 06:43:32;;;;;;;;;6.67;6.00;;;;;24.83;64.37;100925.09;5043053;28;45296;-83
2023/06/10 06:45:57;;;;;;;;;5.33;5.33;;;;;24.77;64.86;100909.50;5056849;28;45331;-80
2023/06/10 06:48:23;;;;;;;;;6.67;6.33;;;;;24.91;66.48;100930.53;5068433;28;45513;-83
2023/06/10 06:50:48;;;;;;;;;7.67;7.67;;;;;24.99;64.49;100933.31;5081977;28;45478;-79
2023/06/10 06:53:16;;;;;;;;;8.00;6.67;;;;;24.97;63.93;100927.19;5056009;28;45419;-79
2023/06/10 06:55:41;;;;;;;;;6.33;6.33;;;;;24.99;63.44;100927.88;5043451;28;45372;-79
2023/06/10 06:58:07;;;;;;;;;11.00;7.67;;;;;25.04;64.11;100930.09;5063642;28;45420;-78
2023/06/10 07:00:32;;;;;;;;;6.00;6.00;;;;;25.10;64.67;100929.44;5043261;28;45563;-79
2023/06/10 07:02:58;;;;;;;;;9.33;7.00;;;;;25.11;64.64;100933.84;5060574;28;45495;-80
2023/06/10 07:05:26;;;;;;;;;8.00;6.67;;;;;25.19;64.75;100951.00;5060863;28;45427;-80
2023/06/10 07:07:54;;;;;;;;;8.67;7.00;;;;;25.27;65.03;100942.03;5053772;28;45415;-78
2023/06/10 07:10:21;;;;;;;;;9.67;6.67;;;;;25.40;64.67;100951.41;5073988;28;45365;-79
2023/06/10 07:12:47;;;;;;;;;5.67;5.67;;;;;25.32;64.72;100937.00;5064003;28;45993;-78
2023/06/10 07:15:12;;;;;;;;;7.67;7.00;;;;;25.26;65.64;100935.75;5062082;28;45284;-78
2023/06/10 07:17:38;;;;;;;;;7.67;6.33;;;;;25.44;64.57;100940.22;5059581;28;45504;-78
2023/06/10 07:20:04;;;;;;;;;7.00;6.00;;;;;25.59;64.15;100934.03;5051490;28;50665;-81
2023/06/10 07:22:29;;;;;;;;;4.00;4.00;;;;;25.76;64.03;100929.50;5055783;28;47738;-78
2023/06/10 07:24:55;;;;;;;;;9.33;8.00;;;;;25.90;63.17;100923.44;5054808;28;45297;-78
2023/06/10 07:27:20;;;;;;;;;9.00;6.67;;;;;25.96;63.88;100925.47;5067674;28;45319;-78
2023/06/10 07:29:46;;;;;;;;;5.33;5.00;;;;;26.09;63.96;100943.94;5070623;28;45287;-78
2023/06/10 07:32:11;;;;;;;;;5.00;5.00;;;;;26.22;62.49;100936.16;5034866;28;45444;-79
2023/06/10 07:34:36;;;;;;;;;7.67;7.67;;;;;26.40;61.20;100950.41;5061975;28;48243;-78
2023/06/10 07:37:02;;;;;;;;;5.67;5.67;;;;;26.48;60.87;100949.53;5063735;28;45523;-77
2023/06/10 07:39:27;;;;;;;;;6.00;6.00;;;;;26.60;60.32;100949.03;5070463;28;45483;-77
2023/06/10 07:41:53;;;;;;;;;4.00;1.67;;;;;26.68;59.12;100948.16;5061960;28;55263;-78
2023/06/10 07:44:19;;;;;;;;;6.00;6.00;;;;;26.85;61.17;100956.13;5043543;28;45763;-78
2023/06/10 07:46:45;;;;;;;;;6.00;5.00;;;;;26.96;59.68;100951.34;5046038;28;45333;-78
2023/06/10 07:49:10;;;;;;;;;7.00;6.00;;;;;27.06;59.40;100950.09;5058677;28;45502;-78
2023/06/10 07:51:36;;;;;;;;;5.67;5.67;;;;;27.20;59.08;100954.81;5060636;28;48278;-78
2023/06/10 07:54:02;;;;;;;;;7.00;6.67;;;;;27.23;57.17;100942.75;5054805;28;45317;-78
2023/06/10 07:56:27;;;;;;;;;5.00;5.00;;;;;27.34;58.99;100954.09;5066766;28;45331;-78
2023/06/10 07:58:52;;;;;;;;;5.67;5.00;;;;;27.40;57.11;100950.66;5067190;28;45612;-78
2023/06/10 08:01:18;;;;;;;;;5.33;5.00;;;;;27.57;57.36;100967.75;5067974;28;46766;-78
2023/06/10 08:03:43;;;;;;;;;7.33;6.00;;;;;27.75;57.88;100964.75;5065617;28;45298;-78
2023/06/10 08:06:11;;;;;;;;;5.67;5.00;;;;;27.82;57.25;100963.84;5054772;28;45402;-78
2023/06/10 08:08:41;;;;;;;;;5.67;5.67;;;;;27.98;56.60;100971.03;5059824;28;45541;-78
2023/06/10 08:11:06;;;;;;;;;4.33;4.33;;;;;28.02;54.70;100969.66;5080024;28;46462;-78
2023/06/10 08:13:31;;;;;;;;;6.67;5.33;;;;;28.08;55.26;100976.28;5061368;28;45530;-78
2023/06/10 08:15:57;;;;;;;;;5.00;5.00;;;;;28.11;54.40;100968.59;5056454;28;45442;-78
2023/06/10 08:18:22;;;;;;;;;6.00;5.67;;;;;28.19;53.86;100976.72;5062187;28;55317;-78
2023/06/10 08:20:47;;;;;;;;;5.00;5.00;;;;;28.28;55.39;100966.59;5061434;28;58748;-77
2023/06/10 08:23:14;;;;;;;;;6.00;6.00;;;;;28.38;54.23;100962.59;5074769;28;45330;-77
2023/06/10 08:25:39;;;;;;;;;9.33;6.00;;;;;28.48;54.42;100964.22;5069514;28;45420;-77
2023/06/10 08:28:05;;;;;;;;;4.67;4.67;;;;;28.68;52.32;100979.03;5066220;28;45376;-77
2023/06/10 08:30:30;;;;;;;;;6.67;6.67;;;;;28.77;53.51;100984.22;5069022;28;46258;-77
2023/06/10 08:32:56;;;;;;;;;5.67;5.67;;;;;28.79;53.39;100975.88;5079869;28;45474;-77
2023/06/10 08:35:21;;;;;;;;;8.00;6.67;;;;;28.80;53.34;100962.06;5076669;28;45281;-77
2023/06/10 08:37:47;;;;;;;;;6.67;5.33;;;;;29.03;53.03;100989.19;5061740;28;45329;-77
2023/06/10 08:40:12;;;;;;;;;7.00;6.00;;;;;29.04;52.92;100963.66;5072919;28;46247;-77
2023/06/10 08:43:04;;;;;;;;;7.00;7.00;;;;;29.12;51.68;100968.19;5072629;28;45281;-77
2023/06/10 08:45:35;;;;;;;;;8.00;6.00;;;;;29.20;52.36;100971.63;5043796;28;44904;-78
2023/06/10 08:48:04;;;;;;;;;7.67;6.67;;;;;29.32;50.92;100974.75;5062343;28;45277;-78
2023/06/10 08:50:30;;;;;;;;;6.00;5.67;;;;;29.52;50.92;100980.44;5075332;28;45959;-78
2023/06/10 08:52:58;;;;;;;;;6.00;6.00;;;;;29.55;51.30;100963.75;5057524;28;45390;-79
2023/06/10 08:55:30;;;;;;;;;4.00;4.00;;;;;29.63;50.80;100969.06;5055453;28;45452;-78
2023/06/10 08:57:56;;;;;;;;;7.00;6.00;;;;;29.69;49.95;100973.75;5077068;28;45283;-77
2023/06/10 09:00:22;;;;;;;;;7.00;5.00;;;;;29.77;48.84;100974.50;5053823;28;45427;-78
2023/06/10 09:02:50;;;;;;;;;7.00;7.00;;;;;29.88;49.60;100979.47;5026895;28;45544;-78
2023/06/10 09:05:16;;;;;;;;;8.00;7.33;;;;;30.01;49.36;100980.66;5071170;28;45305;-78
2023/06/10 09:07:41;;;;;;;;;8.33;7.00;;;;;30.04;48.56;100966.63;5061002;28;45722;-78
2023/06/10 09:10:07;;;;;;;;;5.67;5.67;;;;;30.16;48.80;100974.09;5074006;28;45637;-78
2023/06/10 09:12:34;;;;;;;;;6.33;6.33;;;;;30.26;49.00;100971.03;5059257;28;45349;-78
2023/06/10 09:15:01;;;;;;;;;7.33;7.33;;;;;30.38;48.42;100973.03;5064800;28;45318;-78
2023/06/10 09:17:26;;;;;;;;;6.67;6.67;;;;;30.40;48.13;100967.38;5067496;28;45318;-78
2023/06/10 09:19:53;;;;;;;;;6.00;6.00;;;;;30.48;48.60;100973.56;5072836;28;46674;-78
2023/06/10 09:22:19;;;;;;;;;6.33;6.00;;;;;30.52;47.71;100964.97;5071265;28;45384;-78
2023/06/10 09:24:46;;;;;;;;;5.00;5.00;;;;;30.61;47.96;100969.25;5060781;28;45479;-78
2023/06/10 09:27:11;;;;;;;;;5.33;5.33;;;;;30.65;46.37;100957.75;5041198;28;45594;-78
2023/06/10 09:29:51;;;;;;;;;5.33;5.00;;;;;30.76;46.98;100978.19;5041984;28;46572;-78
2023/06/10 09:32:18;;;;;;;;;4.00;4.00;;;;;30.92;48.71;100973.25;5055427;28;45555;-78
2023/06/10 09:34:45;;;;;;;;;4.33;4.33;;;;;30.99;46.82;100971.44;5079689;28;45372;-77
2023/06/10 09:37:12;;;;;;;;;6.33;6.00;;;;;31.03;46.58;100949.16;5064352;28;45368;-78
2023/06/10 09:39:38;;;;;;;;;5.33;5.33;;;;;31.19;47.48;100967.97;5037438;28;45367;-78
2023/06/10 09:42:24;;;;;;;;;5.00;5.00;;;;;31.31;47.98;100971.84;5039923;28;45348;-78
2023/06/10 09:44:51;;;;;;;;;5.00;5.00;;;;;31.39;46.30;100957.97;5065429;28;45324;-78
2023/06/10 09:47:21;;;;;;;;;6.67;6.00;;;;;31.64;45.35;100974.75;5067708;28;45366;-78
2023/06/10 09:49:46;;;;;;;;;5.67;4.67;;;;;31.74;45.95;100972.47;5053416;28;47589;-78
2023/06/10 09:52:11;;;;;;;;;7.00;6.67;;;;;31.90;44.14;100972.91;5059450;28;45376;-78
2023/06/10 09:54:37;;;;;;;;;5.00;5.00;;;;;31.98;44.48;100971.88;5053644;28;45637;-78
2023/06/10 09:57:08;;;;;;;;;7.67;7.00;;;;;32.07;45.03;100967.91;5073463;28;45364;-78
2023/06/10 09:59:34;;;;;;;;;6.33;6.33;;;;;32.23;44.85;100972.97;5062601;28;45416;-78
2023/06/10 10:02:00;;;;;;;;;6.33;6.33;;;;;32.36;43.10;100977.66;5072761;28;45352;-78
2023/06/10 10:04:26;;;;;;;;;6.67;6.67;;;;;32.45;42.16;100974.50;5046984;28;45209;-78
2023/06/10 10:06:52;;;;;;;;;5.00;5.00;;;;;32.59;43.42;100971.78;5067056;28;45292;-78
2023/06/10 10:09:17;;;;;;;;;9.00;6.00;;;;;32.57;43.62;100954.66;5057063;28;47156;-78
2023/06/10 10:11:44;;;;;;;;;6.00;5.33;;;;;32.57;42.11;100963.75;5058705;28;45560;-78
2023/06/10 10:14:09;;;;;;;;;7.33;5.00;;;;;32.69;40.50;100966.72;5058898;28;45306;-78
2023/06/10 10:16:41;;;;;;;;;5.67;5.67;;;;;32.67;41.92;100975.13;5058532;28;45494;-78
2023/06/10 10:19:32;;;;;;;;;5.33;4.33;;;;;32.55;41.71;100963.13;5057011;28;45452;-78
2023/06/10 10:22:26;;;;;;;;;5.00;3.33;;;;;32.69;41.84;100961.25;5041562;28;45498;-78
2023/06/10 10:24:55;;;;;;;;;9.00;8.33;;;;;32.82;42.52;100964.78;5055394;28;45268;-78
2023/06/10 10:27:28;;;;;;;;;4.67;4.67;;;;;32.90;39.86;100955.50;5078461;28;45388;-78
2023/06/10 10:29:54;;;;;;;;;5.33;5.33;;;;;33.10;42.03;100978.25;5065703;28;45296;-78
2023/06/10 10:32:32;;;;;;;;;6.00;6.00;;;;;33.24;40.63;100968.09;5059868;28;45352;-78
2023/06/10 10:35:22;;;;;;;;;6.67;4.33;;;;;33.41;38.64;100969.31;5061889;28;45517;-79
2023/06/10 10:37:49;;;;;;;;;4.67;4.00;;;;;33.48;39.20;100972.84;5038094;28;45352;-78
2023/06/10 10:40:15;;;;;;;;;6.00;4.67;;;;;33.45;39.30;100962.31;5056040;28;46429;-79
2023/06/10 10:42:42;;;;;;;;;6.00;6.00;;;;;33.50;37.63;100965.25;5071693;28;45366;-78
2023/06/10 10:45:09;;;;;;;;;6.00;6.00;;;;;33.55;38.23;100968.16;5058494;28;45443;-79
2023/06/10 10:47:37;;;;;;;;;9.33;8.00;;;;;33.62;37.53;100952.56;5042076;28;45571;-78
2023/06/10 10:50:14;;;;;;;;;7.00;6.00;;;;;33.65;37.18;100957.59;5053704;28;45434;-79
2023/06/10 10:52:58;;;;;;;;;6.00;6.00;;;;;33.71;37.70;100942.16;5049204;28;45428;-79
2023/06/10 10:55:24;;;;;;;;;5.00;5.00;;;;;33.88;37.22;100952.41;5044290;28;45377;-79
2023/06/10 10:57:56;;;;;;;;;5.67;5.00;;;;;34.04;37.65;100960.09;5075995;28;45479;-78
2023/06/10 11:00:45;;;;;;;;;5.00;5.00;;;;;34.11;36.96;100946.38;5057801;28;45325;-79
2023/06/10 11:03:18;;;;;;;;;2.00;2.00;;;;;34.10;36.90;100961.13;5063343;28;45371;-78
2023/06/10 11:05:48;;;;;;;;;5.67;5.67;;;;;34.20;38.01;100950.50;5048189;28;45368;-78
2023/06/10 11:08:32;;;;;;;;;7.00;6.33;;;;;34.34;37.10;100959.50;5052916;28;45467;-78
2023/06/10 11:10:58;;;;;;;;;5.67;5.67;;;;;34.42;36.74;100951.00;5049951;28;45439;-78
2023/06/10 11:13:25;;;;;;;;;3.00;3.00;;;;;34.45;36.13;100943.13;5057190;28;45475;-78
2023/06/10 11:15:51;;;;;;;;;7.00;6.33;;;;;34.42;35.83;100940.00;5073665;28;45483;-78
2023/06/10 11:18:27;;;;;;;;;7.67;6.00;;;;;34.49;36.86;100941.59;5043977;28;45799;-78
2023/06/10 11:21:04;;;;;;;;;6.00;5.00;;;;;34.62;37.49;100940.66;5045976;28;46725;-78